Time;durP1;ratioP1;P1;durP2;ratioP2;P2;SDS_P1;SDS_P2;PMS_P1;PMS_P2;Temp;Humidity;BMP_temperature;BMP_pressure;BME280_temperature;BME280_humidity;BME280_pressure;Samples;Min_cycle;Max_cycle;Signal;HPM_P1;HPM_P2
2021/11/12 00:13:35;;;;;;;26.77;11.85;;;;;;;3.13;69.90;98675.91;5050524;28;20036;-62
2021/11/12 00:16:03;;;;;;;25.33;11.23;;;;;;;3.07;69.83;98664.44;5050655;28;20037;-61
2021/11/12 00:18:30;;;;;;;32.38;13.48;;;;;;;3.12;69.50;98659.38;5051296;28;20277;-63
2021/11/12 00:20:59;;;;;;;26.40;12.90;;;;;;;3.11;69.93;98651.72;5051277;28;20474;-63
2021/11/12 00:23:26;;;;;;;30.83;12.35;;;;;;;3.08;70.13;98650.31;5050026;28;20082;-62
2021/11/12 00:25:53;;;;;;;23.17;11.20;;;;;;;3.14;69.15;98646.06;5051261;28;20044;-62
2021/11/12 00:28:22;;;;;;;24.80;11.43;;;;;;;3.13;69.88;98649.72;5050051;28;20041;-62
2021/11/12 00:31:09;;;;;;;24.73;11.00;;;;;;;3.14;69.41;98632.97;5051018;28;20053;-63
2021/11/12 00:33:51;;;;;;;25.40;11.05;;;;;;;3.15;69.23;98629.38;5050523;28;20040;-63
2021/11/12 00:39:22;;;;;;;22.90;10.70;;;;;;;3.19;68.58;98627.94;5051092;28;20498;-63
2021/11/12 00:44:44;;;;;;;22.98;10.45;;;;;;;3.18;68.45;98608.00;5051038;28;20052;-62
2021/11/12 00:47:25;;;;;;;19.67;10.00;;;;;;;3.14;68.19;98604.97;5049957;28;20048;-63
2021/11/12 00:55:08;;;;;;;17.88;9.80;;;;;;;3.35;67.37;98582.09;5050994;28;20465;-63
2021/11/12 00:57:33;;;;;;;19.75;10.18;;;;;;;3.32;67.14;98572.06;5051254;28;20037;-64
2021/11/12 00:59:59;;;;;;;19.73;10.20;;;;;;;3.39;66.92;98557.91;5051645;28;20037;-64
2021/11/12 01:02:27;;;;;;;25.05;12.00;;;;;;;3.33;67.31;98558.75;5054806;28;20135;-65
2021/11/12 01:04:53;;;;;;;20.35;10.93;;;;;;;3.35;67.16;98553.28;5055064;28;20041;-62
2021/11/12 01:07:19;;;;;;;17.38;9.40;;;;;;;3.33;66.76;98542.25;5055029;28;20053;-64
2021/11/12 01:09:45;;;;;;;21.42;10.30;;;;;;;3.27;66.66;98536.03;5055014;28;20517;-63
2021/11/12 01:12:11;;;;;;;22.50;11.93;;;;;;;3.16;67.07;98545.34;5054958;28;20483;-63
2021/11/12 01:14:37;;;;;;;20.50;11.50;;;;;;;3.26;67.64;98542.25;5054586;28;20045;-64
2021/11/12 01:17:03;;;;;;;18.63;9.43;;;;;;;3.24;67.18;98530.41;5054657;28;20047;-64
2021/11/12 01:19:29;;;;;;;19.90;10.88;;;;;;;3.28;67.58;98523.72;5054775;28;20037;-63
2021/11/12 01:21:55;;;;;;;20.40;10.07;;;;;;;3.29;66.61;98513.03;5054611;28;20099;-62
2021/11/12 01:24:21;;;;;;;26.38;11.57;;;;;;;3.25;66.65;98501.38;5054405;28;20524;-63
2021/11/12 01:26:47;;;;;;;17.88;10.10;;;;;;;3.27;67.34;98499.34;5052935;28;20045;-62
2021/11/12 01:29:13;;;;;;;23.08;10.32;;;;;;;3.22;66.96;98493.94;5054379;28;20041;-63
2021/11/12 01:31:39;;;;;;;19.38;10.30;;;;;;;3.13;67.34;98498.63;5053920;28;20094;-63
2021/11/12 01:34:09;;;;;;;20.10;10.30;;;;;;;3.18;67.30;98495.41;5054210;28;20091;-64
2021/11/12 01:36:40;;;;;;;21.15;9.70;;;;;;;3.18;66.92;98498.00;5054239;28;20056;-61
2021/11/12 01:39:10;;;;;;;18.58;10.13;;;;;;;3.21;66.84;98492.34;5053255;28;20478;-62
2021/11/12 01:41:43;;;;;;;20.65;9.63;;;;;;;3.24;66.82;98478.84;5054294;28;20470;-63
2021/11/12 01:44:10;;;;;;;20.83;10.73;;;;;;;3.20;66.79;98480.25;5054451;28;20079;-63
2021/11/12 02:01:38;;;;;;;19.23;10.25;;;;;;;2.92;67.60;98454.47;5053590;28;20084;-61
2021/11/12 02:04:06;;;;;;;16.02;10.15;;;;;;;2.89;67.49;98442.59;5053832;28;20040;-62
2021/11/12 02:06:33;;;;;;;23.38;11.50;;;;;;;2.89;67.48;98434.75;5035800;28;20049;-60
2021/11/12 02:09:00;;;;;;;22.77;10.40;;;;;;;2.92;67.22;98438.75;5035941;28;20047;-62
2021/11/12 02:11:26;;;;;;;19.63;10.75;;;;;;;2.85;67.50;98430.91;5051541;28;20053;-62
2021/11/12 02:13:53;;;;;;;22.45;11.00;;;;;;;2.89;67.53;98423.47;5053592;28;20141;-63
2021/11/12 02:16:27;;;;;;;23.08;10.70;;;;;;;2.88;67.80;98406.16;5053540;28;20056;-62
2021/11/12 02:18:53;;;;;;;21.83;10.75;;;;;;;3.00;68.12;98411.50;5053791;28;20484;-63
2021/11/12 02:24:04;;;;;;;22.98;11.15;;;;;;;2.94;67.81;98400.06;5053853;28;20048;-64
2021/11/12 02:26:34;;;;;;;21.75;11.85;;;;;;;2.85;68.35;98399.50;5053520;28;20513;-62
2021/11/12 02:29:01;;;;;;;25.73;12.55;;;;;;;2.84;69.21;98387.44;5053570;28;20414;-63
2021/11/12 02:31:28;;;;;;;23.92;12.27;;;;;;;2.81;68.93;98380.03;5053238;28;20521;-62
2021/11/12 02:33:56;;;;;;;30.73;13.23;;;;;;;2.81;70.18;98377.41;5053224;28;20132;-63
2021/11/12 02:36:23;;;;;;;25.52;12.00;;;;;;;2.91;69.93;98379.53;5051777;28;20037;-61
2021/11/12 02:38:51;;;;;;;25.10;13.00;;;;;;;2.84;69.91;98382.22;5053432;28;20140;-64
2021/11/12 02:41:18;;;;;;;26.05;13.75;;;;;;;2.71;71.01;98364.00;5051466;28;20041;-63
2021/11/12 02:43:47;;;;;;;28.42;14.23;;;;;;;2.62;71.53;98365.25;5051859;28;20510;-64
2021/11/12 02:46:17;;;;;;;23.90;12.90;;;;;;;2.65;71.93;98367.47;5051432;28;20037;-62
2021/11/12 02:48:43;;;;;;;30.52;13.65;;;;;;;2.43;72.46;98356.50;5051704;28;20135;-63
2021/11/12 02:51:15;;;;;;;28.40;14.77;;;;;;;2.41;73.49;98359.34;5052722;28;20135;-63
2021/11/12 02:53:41;;;;;;;28.20;13.40;;;;;;;2.40;74.19;98365.56;5053149;28;20053;-63
2021/11/12 02:56:13;;;;;;;31.52;14.18;;;;;;;2.38;74.25;98365.00;5052836;28;20045;-63
2021/11/12 02:58:39;;;;;;;27.85;13.27;;;;;;;2.40;74.87;98360.34;5051845;28;20045;-63
2021/11/12 03:01:07;;;;;;;31.30;14.50;;;;;;;2.41;75.13;98359.34;5052523;28;20155;-62
2021/11/12 03:03:32;;;;;;;27.95;14.15;;;;;;;2.38;74.63;98349.31;5052894;28;20473;-64
2021/11/12 03:05:59;;;;;;;29.02;14.07;;;;;;;2.26;75.37;98340.50;5052871;28;20045;-63
2021/11/12 03:08:27;;;;;;;27.17;14.63;;;;;;;2.10;75.63;98343.59;5052778;28;20036;-64
2021/11/12 03:10:55;;;;;;;30.58;14.07;;;;;;;1.98;76.28;98330.38;5051013;28;20235;-62
2021/11/12 03:13:23;;;;;;;34.08;16.13;;;;;;;1.99;76.57;98327.53;5052661;28;20032;-62
2021/11/12 03:15:48;;;;;;;31.35;13.95;;;;;;;2.07;76.44;98323.09;5051030;28;20052;-63
2021/11/12 03:18:15;;;;;;;27.02;13.52;;;;;;;2.01;76.11;98312.47;5052222;28;20079;-64
2021/11/12 03:20:42;;;;;;;26.02;12.38;;;;;;;2.05;76.65;98307.63;5052328;28;20049;-63
2021/11/12 03:23:11;;;;;;;26.88;13.70;;;;;;;2.20;77.21;98295.06;5033539;28;20065;-63
2021/11/12 03:28:15;;;;;;;27.67;13.52;;;;;;;2.10;77.61;98289.50;5052195;28;20078;-63
2021/11/12 04:00:36;;;;;;;25.73;13.57;;;;;;;1.98;75.82;98182.19;5051548;28;20049;-63
2021/11/12 05:44:05;;;;;;;27.27;13.48;;;;;;;1.87;79.10;97986.88;5056317;28;20041;-61
2021/11/12 05:55:04;;;;;;;29.00;14.52;;;;;;;1.96;78.44;97969.91;5052286;28;20098;-62
2021/11/12 05:55:08;;;;;;;24.60;13.63;;;;;;;1.87;78.40;97966.00;5052153;28;20051;-61
2021/11/12 05:57:35;;;;;;;24.52;14.13;;;;;;;1.84;78.43;97971.66;5051681;28;20064;-60
2021/11/12 06:00:04;;;;;;;31.02;14.32;;;;;;;1.91;78.94;97966.34;5051965;28;20383;-62
2021/11/12 06:02:30;;;;;;;24.17;13.85;;;;;;;1.89;78.23;97973.63;5051637;28;20048;-61
2021/11/12 06:04:56;;;;;;;24.45;12.77;;;;;;;1.88;78.29;97966.78;5051576;28;20410;-61
2021/11/12 06:07:22;;;;;;;27.75;13.85;;;;;;;1.88;78.49;97962.34;5049750;28;20096;-63
2021/11/12 06:09:48;;;;;;;26.58;13.48;;;;;;;1.97;79.57;97965.47;5051938;28;20093;-62
2021/11/12 06:12:14;;;;;;;26.33;13.80;;;;;;;2.04;78.32;97964.41;5051896;28;20056;-60
2021/11/12 06:14:41;;;;;;;28.15;14.10;;;;;;;2.03;78.03;97965.44;5050381;28;20052;-62
2021/11/12 06:17:06;;;;;;;27.13;13.52;;;;;;;1.98;78.51;97964.47;5050933;28;20514;-61
2021/11/12 06:19:32;;;;;;;28.40;13.75;;;;;;;2.03;79.18;97954.97;5051432;28;20135;-59
2021/11/12 06:21:58;;;;;;;26.48;13.57;;;;;;;2.07;80.34;97965.00;5048504;28;20057;-61
2021/11/12 06:24:24;;;;;;;28.85;13.88;;;;;;;2.09;79.16;97950.69;5050978;28;20077;-61
2021/11/12 06:26:50;;;;;;;28.02;14.38;;;;;;;2.11;78.72;97948.66;5049810;28;20128;-62
2021/11/12 06:29:16;;;;;;;26.67;14.05;;;;;;;2.09;78.35;97948.09;5050003;28;20137;-62
2021/11/12 06:31:42;;;;;;;27.52;14.60;;;;;;;2.12;78.89;97941.59;5049998;28;20065;-61
2021/11/12 06:34:08;;;;;;;27.90;13.50;;;;;;;2.17;78.29;97945.16;5051086;28;20041;-62
2021/11/12 06:36:34;;;;;;;23.38;12.73;;;;;;;2.20;77.92;97933.47;5045501;28;20068;-62
2021/11/12 06:39:00;;;;;;;25.63;13.88;;;;;;;2.21;77.12;97943.72;5049074;28;20498;-62
2021/11/12 06:52:16;;;;;;;28.85;13.85;;;;;;;2.44;78.29;97919.53;5049373;28;20176;-61
2021/11/12 06:54:45;;;;;;;24.17;11.88;;;;;;;2.40;77.15;97920.16;5050663;28;20037;-61
2021/11/12 06:57:16;;;;;;;28.00;13.23;;;;;;;2.30;77.74;97912.06;5050208;28;20083;-61
2021/11/12 06:59:43;;;;;;;27.33;12.90;;;;;;;2.34;78.38;97914.00;5051423;28;20037;-61
2021/11/12 07:02:10;;;;;;;23.67;12.35;;;;;;;2.40;78.55;97899.25;5032923;28;20114;-61
2021/11/12 07:04:37;;;;;;;18.90;11.18;;;;;;;2.40;77.53;97892.19;5051991;28;20384;-60
2021/11/12 07:07:05;;;;;;;19.17;11.70;;;;;;;2.40;77.27;97892.19;5048881;28;20502;-61
2021/11/12 07:09:31;;;;;;;21.55;11.35;;;;;;;2.43;77.43;97893.56;5051953;28;20041;-61
2021/11/12 07:11:57;;;;;;;20.30;10.68;;;;;;;2.44;77.80;97882.91;5050484;28;20499;-62
2021/11/12 07:14:23;;;;;;;19.80;11.27;;;;;;;2.57;77.22;97878.50;5051362;28;20044;-62
2021/11/12 07:16:49;;;;;;;18.67;9.95;;;;;;;2.48;76.54;97876.19;5051329;28;20076;-62
2021/11/12 07:19:15;;;;;;;16.58;10.18;;;;;;;2.49;77.34;97874.38;5050929;28;20037;-64
2021/11/12 07:21:41;;;;;;;19.33;10.63;;;;;;;2.50;77.08;97881.22;5050214;28;20053;-62
2021/11/12 07:24:07;;;;;;;17.55;9.95;;;;;;;2.53;77.33;97866.88;5050834;28;20049;-62
2021/11/12 07:26:32;;;;;;;17.77;10.23;;;;;;;2.63;77.14;97860.09;5050187;28;20052;-62
2021/11/12 07:28:59;;;;;;;16.67;9.88;;;;;;;2.67;77.74;97860.44;5050097;28;20047;-64
2021/11/12 07:31:25;;;;;;;16.83;9.02;;;;;;;2.72;76.85;97857.97;5048332;28;20090;-62
2021/11/12 07:33:52;;;;;;;18.77;9.10;;;;;;;2.57;76.66;97860.19;5050361;28;20040;-63
2021/11/12 07:36:23;;;;;;;15.27;9.32;;;;;;;2.47;77.07;97853.69;5049773;28;20414;-61
2021/11/12 07:38:56;;;;;;;19.00;9.40;;;;;;;2.56;77.95;97858.59;5048556;28;20047;-61
2021/11/12 07:46:44;;;;;;;13.65;8.20;;;;;;;2.52;77.68;97847.78;5049968;28;20471;-63
2021/11/12 07:49:12;;;;;;;13.85;7.90;;;;;;;2.53;77.38;97844.16;5047455;28;20045;-62
2021/11/12 07:51:40;;;;;;;12.93;7.80;;;;;;;2.56;76.99;97835.88;5046556;28;20061;-63
2021/11/12 07:54:06;;;;;;;13.18;7.88;;;;;;;2.50;76.99;97821.06;5049193;28;20045;-62
2021/11/12 07:56:33;;;;;;;15.55;8.43;;;;;;;2.55;77.67;97836.88;5047395;28;20136;-63
2021/11/12 07:59:01;;;;;;;12.40;7.57;;;;;;;2.63;77.77;97831.31;5048622;28;20041;-63
2021/11/12 08:01:27;;;;;;;13.35;7.65;;;;;;;2.71;77.36;97823.16;4998891;28;20048;-62
2021/11/12 08:03:55;;;;;;;13.68;7.80;;;;;;;2.69;78.03;97832.25;5050122;28;20086;-62
2021/11/12 08:06:24;;;;;;;11.98;7.75;;;;;;;2.72;78.31;97831.78;5048233;28;20055;-63
2021/11/12 08:09:01;;;;;;;11.15;7.72;;;;;;;2.78;77.48;97830.88;5047394;28;20116;-62
2021/11/12 08:11:33;;;;;;;12.75;7.82;;;;;;;2.76;77.17;97821.66;5030501;28;20060;-63
2021/11/12 08:19:16;;;;;;;12.52;7.82;;;;;;;2.79;78.76;97821.22;5049940;28;20041;-63
2021/11/12 08:24:20;;;;;;;13.40;8.95;;;;;;;2.81;79.39;97801.66;5047338;28;20156;-63
2021/11/12 08:26:59;;;;;;;14.63;8.27;;;;;;;2.80;80.18;97810.53;5048524;28;20090;-64
2021/11/12 08:29:52;;;;;;;13.93;8.07;;;;;;;2.76;79.26;97796.28;5047303;28;20044;-62
2021/11/12 08:32:42;;;;;;;11.63;7.80;;;;;;;2.84;78.63;97801.19;5049272;28;20049;-63
2021/11/12 08:43:23;;;;;;;15.05;8.50;;;;;;;2.81;79.33;97798.25;5019293;28;20041;-62
2021/11/12 08:48:36;;;;;;;13.38;8.35;;;;;;;2.93;78.22;97788.59;5048417;28;20079;-63
2021/11/12 08:51:02;;;;;;;14.70;8.60;;;;;;;3.01;77.77;97788.25;5046556;28;20516;-63
2021/11/12 08:53:28;;;;;;;13.00;8.65;;;;;;;3.03;76.90;97795.84;5047151;28;20052;-64
2021/11/12 08:55:54;;;;;;;16.33;8.52;;;;;;;3.00;77.30;97791.91;5048593;28;20044;-63
2021/11/12 08:58:19;;;;;;;15.95;8.77;;;;;;;2.96;78.32;97798.59;5045410;28;20490;-64
2021/11/12 09:00:45;;;;;;;16.88;8.50;;;;;;;3.03;79.13;97801.09;5048254;28;20045;-63
2021/11/12 09:03:12;;;;;;;15.40;9.20;;;;;;;2.93;78.22;97786.75;5049416;28;20044;-63
2021/11/12 09:05:38;;;;;;;19.73;9.07;;;;;;;2.86;79.82;97793.94;5046803;28;20072;-64
2021/11/12 09:08:04;;;;;;;12.93;8.77;;;;;;;2.90;79.43;97789.81;5048867;28;20067;-63
2021/11/12 09:10:30;;;;;;;15.55;8.55;;;;;;;2.97;79.47;97781.84;5049420;28;20052;-64
2021/11/12 09:13:08;;;;;;;15.43;8.57;;;;;;;3.00;78.83;97778.81;5048501;28;20470;-63
2021/11/12 09:15:34;;;;;;;16.25;8.70;;;;;;;3.08;78.70;97781.06;5047872;28;20037;-62
2021/11/12 09:18:02;;;;;;;15.25;8.82;;;;;;;3.04;79.48;97781.75;5048507;28;20091;-68
2021/11/12 09:20:28;;;;;;;15.90;8.77;;;;;;;3.05;78.20;97768.44;5048441;28;20041;-68
2021/11/12 09:22:57;;;;;;;13.45;8.05;;;;;;;3.08;78.45;97783.69;5049997;28;20510;-65
2021/11/12 09:25:23;;;;;;;15.45;8.70;;;;;;;3.11;77.84;97787.66;5050743;28;20053;-61
2021/11/12 09:27:50;;;;;;;17.50;9.88;;;;;;;3.14;78.50;97779.34;5051179;28;20047;-63
2021/11/12 09:30:22;;;;;;;15.90;8.95;;;;;;;3.15;78.17;97779.16;5051782;28;20190;-64
2021/11/12 09:32:52;;;;;;;17.67;8.45;;;;;;;3.27;78.62;97779.13;5052314;28;20045;-61
2021/11/12 09:35:18;;;;;;;;;;;;;;;3.46;77.88;97776.38;5053121;28;20148;-63
2021/11/12 09:37:44;;;;;;;14.50;9.07;;;;;;;3.50;77.47;97778.31;5053282;28;20438;-63
2021/11/12 09:40:11;;;;;;;16.25;9.35;;;;;;;3.48;77.41;97785.59;5052845;28;20037;-62
2021/11/12 09:42:37;;;;;;;13.98;8.07;;;;;;;3.40;78.10;97785.94;5052585;28;20072;-62
2021/11/12 09:45:06;;;;;;;16.85;8.45;;;;;;;3.43;77.68;97772.38;5052327;28;20045;-66
2021/11/12 09:47:33;;;;;;;18.10;10.40;;;;;;;3.46;78.54;97777.16;5052554;28;20520;-63
2021/11/12 09:50:01;;;;;;;13.30;8.95;;;;;;;3.46;77.98;97785.03;5051681;28;20056;-66
2021/11/12 09:52:30;;;;;;;15.80;8.90;;;;;;;3.56;78.11;97777.38;5049752;28;20048;-64
2021/11/12 09:54:57;;;;;;;12.52;8.48;;;;;;;3.58;77.30;97777.13;5052959;28;20349;-65
2021/11/12 09:57:23;;;;;;;18.55;8.45;;;;;;;3.61;77.39;97781.91;5043574;28;20080;-63
2021/11/12 09:59:51;;;;;;;13.65;8.65;;;;;;;3.68;77.18;97781.78;5050932;28;20041;-64
2021/11/12 10:02:18;;;;;;;15.90;9.68;;;;;;;3.71;77.17;97786.59;5051781;28;20098;-65
2021/11/12 10:04:45;;;;;;;13.85;8.38;;;;;;;3.76;77.04;97784.84;5051035;28;20566;-64
2021/11/12 10:07:14;;;;;;;13.82;8.30;;;;;;;3.81;76.79;97786.78;5051454;28;20478;-63
2021/11/12 10:09:40;;;;;;;18.17;8.40;;;;;;;3.82;76.97;97783.09;5051599;28;20127;-64
2021/11/12 10:12:08;;;;;;;14.35;8.23;;;;;;;3.71;76.70;97782.13;5051408;28;20049;-64
2021/11/12 10:15:03;;;;;;;12.88;9.05;;;;;;;3.78;77.29;97784.63;5050563;28;20041;-64
2021/11/12 10:17:23;;;;;;;13.52;8.35;;;;;;;3.78;77.28;97777.53;5051349;28;20069;-63
2021/11/12 10:19:53;;;;;;;14.95;8.88;;;;;;;3.72;77.34;97786.34;5051276;28;20084;-64
2021/11/12 10:22:24;;;;;;;15.35;9.10;;;;;;;3.76;77.51;97787.44;5051803;28;20045;-63
2021/11/12 10:24:51;;;;;;;14.65;8.23;;;;;;;3.80;77.39;97785.97;5051710;28;20145;-63
2021/11/12 10:27:20;;;;;;;13.55;8.55;;;;;;;3.79;77.43;97784.38;5048625;28;20072;-63
2021/11/12 10:29:54;;;;;;;15.05;9.30;;;;;;;3.90;77.48;97789.81;5052052;28;20063;-65
2021/11/12 10:32:32;;;;;;;16.02;9.65;;;;;;;3.92;77.42;97790.38;5049979;28;20498;-65
2021/11/12 10:35:03;;;;;;;15.65;8.05;;;;;;;3.96;77.61;97788.88;5052136;28;20506;-63
2021/11/12 10:37:33;;;;;;;15.23;8.27;;;;;;;4.01;76.82;97795.03;5052199;28;20470;-64
2021/11/12 10:40:05;;;;;;;14.65;8.63;;;;;;;4.03;77.14;97785.09;5051005;28;20095;-63
2021/11/12 10:42:33;;;;;;;14.60;8.30;;;;;;;4.04;77.42;97793.75;5049615;28;20715;-64
2021/11/12 10:45:11;;;;;;;13.00;8.55;;;;;;;3.99;77.59;97794.44;5051012;28;20493;-65
2021/11/12 10:47:51;;;;;;;13.73;7.85;;;;;;;4.09;77.66;97791.25;5051336;28;20048;-65
2021/11/12 10:50:20;;;;;;;11.90;7.75;;;;;;;4.13;77.24;97789.72;5049611;28;20094;-65
2021/11/12 10:52:48;;;;;;;12.90;7.68;;;;;;;4.20;77.59;97803.47;5049831;28;20551;-64
2021/11/12 10:55:19;;;;;;;11.45;7.80;;;;;;;4.27;77.33;97791.03;5050507;28;20041;-65
2021/11/12 10:58:00;;;;;;;10.70;7.10;;;;;;;4.36;76.63;97788.03;5048758;28;20045;-63
2021/11/12 11:00:28;;;;;;;9.38;5.78;;;;;;;4.39;76.50;97788.38;5051128;28;20068;-65
2021/11/12 11:02:57;;;;;;;10.32;6.93;;;;;;;4.42;77.10;97785.25;5049845;28;20036;-64
2021/11/12 11:05:30;;;;;;;9.70;5.85;;;;;;;4.60;76.16;97799.19;5048419;28;20132;-64
2021/11/12 11:08:02;;;;;;;7.60;5.97;;;;;;;4.64;76.67;97802.94;5048825;28;20150;-64
2021/11/12 11:10:38;;;;;;;8.85;5.70;;;;;;;4.64;76.08;97808.19;5050562;28;20044;-64
2021/11/12 11:13:10;;;;;;;8.93;5.85;;;;;;;4.66;77.60;97803.50;5049992;28;20131;-64
2021/11/12 11:15:45;;;;;;;8.98;5.65;;;;;;;4.64;77.71;97805.56;5050190;28;20053;-63
2021/11/12 11:18:24;;;;;;;9.13;4.88;;;;;;;4.60;77.66;97810.50;5050634;28;20502;-66
2021/11/12 11:24:07;;;;;;;9.50;5.70;;;;;;;4.56;81.24;97825.13;5050609;28;20057;-65
2021/11/12 11:26:43;;;;;;;8.98;5.90;;;;;;;4.68;82.63;97814.56;5048276;28;20053;-67
2021/11/12 11:29:17;;;;;;;9.75;5.43;;;;;;;4.76;83.36;97827.28;5050580;28;20048;-67
2021/11/12 11:31:44;;;;;;;9.88;5.55;;;;;;;4.58;82.46;97822.25;5050884;28;20057;-67
2021/11/12 11:34:10;;;;;;;8.45;5.28;;;;;;;4.31;83.41;97814.97;5049273;28;20041;-67
2021/11/12 11:36:40;;;;;;;9.02;5.80;;;;;;;4.33;82.92;97826.81;5049335;28;20048;-62
2021/11/12 11:39:08;;;;;;;7.97;5.45;;;;;;;4.36;81.78;97830.03;5050625;28;20502;-68
2021/11/12 11:41:34;;;;;;;9.68;5.18;;;;;;;4.39;83.02;97829.53;5050037;28;20140;-67
2021/11/12 11:44:00;;;;;;;7.13;5.00;;;;;;;4.38;86.81;97828.72;5050799;28;20152;-67
2021/11/12 11:46:29;;;;;;;7.10;4.60;;;;;;;4.43;86.55;97828.81;5049017;28;20049;-65
2021/11/12 11:48:58;;;;;;;6.10;4.35;;;;;;;4.44;85.16;97837.47;5049030;28;20040;-68
2021/11/12 11:51:28;;;;;;;6.60;4.22;;;;;;;4.39;83.39;97826.91;5049431;28;20061;-68
2021/11/12 11:54:01;;;;;;;7.45;5.07;;;;;;;4.43;84.49;97831.44;5048318;28;20040;-67
2021/11/12 11:56:29;;;;;;;9.73;4.55;;;;;;;4.45;84.60;97831.22;5046879;28;20064;-62
2021/11/12 11:59:02;;;;;;;8.25;4.13;;;;;;;4.41;84.00;97838.78;5049772;28;20051;-64
2021/11/12 12:01:50;;;;;;;6.32;3.80;;;;;;;4.33;82.66;97836.53;5030535;28;20049;-65
2021/11/12 12:04:16;;;;;;;8.57;4.03;;;;;;;4.34;84.63;97832.84;5048691;28;20083;-65
2021/11/12 12:06:44;;;;;;;5.35;3.97;;;;;;;4.36;82.41;97837.88;5049315;28;20065;-65
2021/11/12 12:09:13;;;;;;;7.00;4.10;;;;;;;4.43;81.81;97851.66;5048659;28;20068;-66
2021/11/12 12:11:42;;;;;;;7.15;4.10;;;;;;;4.44;82.43;97846.19;5049555;28;20055;-67
2021/11/12 12:14:26;;;;;;;5.13;3.88;;;;;;;4.49;80.58;97848.88;5050077;28;20048;-66
2021/11/12 12:17:19;;;;;;;6.32;4.10;;;;;;;4.49;80.88;97850.69;5049387;28;20419;-64
2021/11/12 12:19:57;;;;;;;6.93;3.70;;;;;;;4.46;80.78;97851.19;5050578;28;20072;-65
2021/11/12 12:39:58;;;;;;;6.00;4.10;;;;;;;4.54;80.10;97874.41;5049020;28;20053;-65
2021/11/12 13:25:41;;;;;;;3.65;2.70;;;;;;;4.62;80.31;97904.72;5040950;28;20049;-67
2021/11/12 13:28:11;;;;;;;3.65;2.75;;;;;;;4.61;79.36;97901.31;5051892;28;20145;-66
2021/11/12 13:30:38;;;;;;;6.72;3.42;;;;;;;4.62;79.14;97902.91;5052252;28;20045;-67
2021/11/12 13:33:04;;;;;;;3.65;2.55;;;;;;;4.58;78.60;97911.47;5051271;28;20509;-66
2021/11/12 13:35:34;;;;;;;2.83;1.90;;;;;;;4.51;78.91;97914.25;5053556;28;20127;-64
2021/11/12 13:38:04;;;;;;;2.40;1.93;;;;;;;4.42;78.09;97916.44;5052934;28;20065;-65
2021/11/12 13:40:34;;;;;;;2.85;2.30;;;;;;;4.42;78.06;97919.06;5050134;28;20102;-66
2021/11/12 13:43:00;;;;;;;4.68;2.10;;;;;;;4.44;77.92;97917.03;5050957;28;20045;-68
2021/11/12 13:45:27;;;;;;;3.95;1.70;;;;;;;4.45;77.69;97923.84;5051119;28;20052;-67
2021/11/12 13:48:11;;;;;;;2.65;1.92;;;;;;;4.39;78.08;97924.78;5050433;28;20044;-65
2021/11/12 13:51:00;;;;;;;4.78;2.60;;;;;;;4.27;78.44;97924.81;5051295;28;20526;-64
2021/11/12 13:53:30;;;;;;;5.97;2.80;;;;;;;4.27;78.34;97931.91;5050158;28;20052;-65
2021/11/12 13:55:58;;;;;;;4.35;2.40;;;;;;;4.21;78.99;97933.63;5049785;28;20076;-65
2021/11/12 13:58:26;;;;;;;4.97;2.67;;;;;;;4.21;78.56;97956.44;5049600;28;20124;-66
2021/11/12 14:00:56;;;;;;;4.13;2.50;;;;;;;4.08;77.96;97958.25;5048878;28;20053;-64
2021/11/12 14:03:39;;;;;;;3.58;1.80;;;;;;;3.96;79.16;97960.09;5048707;28;20037;-65
2021/11/12 14:06:11;;;;;;;3.65;1.60;;;;;;;3.94;79.01;97958.72;5050675;28;20041;-63
2021/11/12 14:08:49;;;;;;;2.13;1.60;;;;;;;3.98;77.97;97963.28;5049231;28;20044;-66
2021/11/12 14:11:24;;;;;;;2.92;1.80;;;;;;;3.93;78.21;97962.38;5049227;28;20057;-64
2021/11/12 14:13:54;;;;;;;3.13;1.70;;;;;;;3.92;78.52;97966.03;5051008;28;20037;-63
2021/11/12 14:16:37;;;;;;;4.50;1.98;;;;;;;3.98;78.14;97970.38;5050668;28;20466;-64
2021/11/12 14:21:55;;;;;;;2.90;1.70;;;;;;;4.02;77.86;97967.03;5050471;28;20056;-64
2021/11/12 14:27:03;;;;;;;1.98;1.23;;;;;;;3.90;78.18;97968.88;5049378;28;20139;-63
2021/11/12 14:32:30;;;;;;;3.97;1.63;;;;;;;3.91;78.03;97972.28;5051956;28;20049;-67
2021/11/12 14:40:38;;;;;;;2.30;1.38;;;;;;;4.09;76.84;97987.91;5051686;28;20053;-64
2021/11/12 14:43:25;;;;;;;4.10;1.70;;;;;;;4.15;77.10;97987.00;5028950;28;20041;-64
2021/11/12 14:54:51;;;;;;;1.75;1.52;;;;;;;4.40;76.32;98005.06;5042881;28;20052;-65
2021/11/12 14:57:28;;;;;;;5.60;1.50;;;;;;;4.48;76.59;98015.22;5049971;28;20137;-66
2021/11/12 15:00:08;;;;;;;2.00;1.20;;;;;;;4.43;76.05;98006.44;5033078;28;20512;-65
2021/11/12 15:02:38;;;;;;;3.03;1.40;;;;;;;4.45;76.27;98015.69;5048652;28;20045;-65
2021/11/12 15:05:05;;;;;;;1.63;1.30;;;;;;;4.42;76.81;98018.78;5049727;28;20044;-64
2021/11/12 15:07:43;;;;;;;1.52;1.17;;;;;;;4.43;76.96;98019.56;5049201;28;20047;-65
2021/11/12 15:10:17;;;;;;;1.92;1.35;;;;;;;4.46;77.12;98022.50;5050659;28;20045;-64
2021/11/12 15:12:48;;;;;;;3.78;1.50;;;;;;;4.44;76.41;98024.59;5047921;28;20041;-65
2021/11/12 15:15:15;;;;;;;3.00;1.55;;;;;;;4.44;77.27;98029.03;5049457;28;20045;-64
2021/11/12 15:17:41;;;;;;;3.92;2.10;;;;;;;4.43;76.73;98030.84;5049914;28;20040;-65
2021/11/12 15:20:08;;;;;;;3.00;1.90;;;;;;;4.40;76.72;98035.75;5050657;28;20083;-67
2021/11/12 15:30:27;;;;;;;2.63;1.67;;;;;;;4.34;77.76;98045.34;5048890;28;20494;-66
2021/11/12 15:33:16;;;;;;;7.00;2.00;;;;;;;4.33;77.80;98055.06;5048489;28;20068;-64
2021/11/12 15:35:40;;;;;;;3.42;1.77;;;;;;;4.36;77.89;98051.19;5048721;28;20052;-66
2021/11/12 15:38:18;;;;;;;2.60;1.60;;;;;;;4.39;77.86;98040.22;5049670;28;20158;-62
2021/11/12 15:40:47;;;;;;;2.40;1.50;;;;;;;4.35;77.58;98054.81;5049939;28;20483;-63
2021/11/12 15:46:09;;;;;;;3.38;1.75;;;;;;;4.37;77.46;98055.38;5042453;28;20048;-64
2021/11/12 15:48:38;;;;;;;4.20;1.98;;;;;;;4.34;77.71;98066.34;5051579;28;20047;-64
2021/11/12 15:53:37;;;;;;;2.80;1.85;;;;;;;4.32;78.02;98071.84;5049711;28;20051;-64
2021/11/12 16:07:46;;;;;;;1.42;1.33;;;;;;;4.18;79.16;98099.31;5051161;28;20393;-64
2021/11/12 16:10:14;;;;;;;1.77;1.48;;;;;;;4.10;79.06;98097.03;5049679;28;20292;-64
2021/11/12 16:26:17;;;;;;;3.83;1.95;;;;;;;4.30;78.46;98112.44;5050706;28;20045;-62
2021/11/12 16:31:30;;;;;;;2.17;1.45;;;;;;;4.10;78.53;98120.63;5050330;28;20440;-61
2021/11/12 16:33:59;;;;;;;2.85;1.73;;;;;;;4.07;79.13;98115.84;5051227;28;20068;-63
2021/11/12 16:36:26;;;;;;;3.30;1.58;;;;;;;4.19;78.67;98131.56;5050649;28;20431;-62
2021/11/12 16:38:52;;;;;;;3.30;1.60;;;;;;;4.10;78.75;98131.09;5049612;28;20413;-64
2021/11/12 16:41:31;;;;;;;2.72;1.70;;;;;;;4.10;78.40;98133.72;5050588;28;20041;-64
2021/11/12 16:57:48;;;;;;;5.75;1.75;;;;;;;4.17;79.16;98144.91;5038653;28;20530;-65
2021/11/12 17:00:41;;;;;;;3.13;1.95;;;;;;;4.23;78.64;98143.19;5048815;28;20091;-63
2021/11/12 17:05:49;;;;;;;5.82;2.97;;;;;;;4.25;78.46;98162.16;5049093;28;20530;-62
2021/11/12 17:44:48;;;;;;;2.85;1.80;;;;;;;4.26;77.96;98156.66;5048713;28;20560;-64
2021/11/12 17:48:46;;;;;;;2.45;1.25;;;;;;;4.25;77.50;98159.53;5053991;28;20041;-65
2021/11/12 18:02:23;;;;;;;2.00;1.50;;;;;;;4.31;76.66;98197.97;5053831;28;20426;-62
2021/11/12 21:46:53;;;;;;;2.35;1.30;;;;;;;4.22;80.31;98472.91;5054409;28;20052;-63
2021/11/12 21:49:18;;;;;;;2.63;1.40;;;;;;;4.24;80.04;98486.63;5054211;28;20045;-63
2021/11/12 21:51:45;;;;;;;2.28;1.45;;;;;;;4.27;80.65;98477.53;5054333;28;20049;-64
2021/11/12 21:54:12;;;;;;;1.10;1.05;;;;;;;4.23;80.48;98477.13;5054112;28;20490;-63
2021/11/12 21:56:38;;;;;;;1.50;1.40;;;;;;;4.23;80.19;98487.63;5053677;28;20049;-63
2021/11/12 21:59:06;;;;;;;1.83;1.20;;;;;;;4.22;80.05;98487.88;5054303;28;20174;-64
2021/11/12 22:01:33;;;;;;;2.10;1.40;;;;;;;4.23;80.86;98492.09;5054171;28;20073;-63
2021/11/12 22:04:02;;;;;;;1.33;1.13;;;;;;;4.24;80.25;98491.09;5054239;28;20037;-63
2021/11/12 22:06:28;;;;;;;1.98;1.40;;;;;;;4.25;79.81;98509.22;5054273;28;20556;-64
2021/11/12 22:08:53;;;;;;;1.88;1.60;;;;;;;4.25;79.94;98498.72;5053959;28;20068;-64
2021/11/12 22:11:19;;;;;;;1.92;1.63;;;;;;;4.29;80.49;98510.41;5054071;28;20501;-64
2021/11/12 22:13:45;;;;;;;2.78;2.00;;;;;;;4.25;80.71;98509.22;5053397;28;20041;-63
2021/11/12 22:16:15;;;;;;;8.00;3.75;;;;;;;4.28;79.94;98503.53;5054012;28;20051;-62